Time;durP1;ratioP1;P1;durP2;ratioP2;P2;SDS_P1;SDS_P2;PMS_P1;PMS_P2;Temp;Humidity;BMP_temperature;BMP_pressure;BME280_temperature;BME280_humidity;BME280_pressure;Samples;Min_cycle;Max_cycle;Signal;HPM_P1;HPM_P2
2024/03/29 00:01:49;;;;;;;3.88;2.33;;;6.70;99.90;;;;;;4994049;28;20117;-79
2024/03/29 00:04:14;;;;;;;2.65;1.85;;;6.70;99.90;;;;;;5012361;28;20064;-78
2024/03/29 00:06:40;;;;;;;8.02;2.53;;;6.70;99.90;;;;;;4994323;28;20038;-79
2024/03/29 00:09:06;;;;;;;4.22;2.03;;;6.70;99.90;;;;;;4993884;28;20435;-79
2024/03/29 00:11:31;;;;;;;2.22;1.73;;;6.70;99.90;;;;;;4994405;28;20618;-79
2024/03/29 00:13:57;;;;;;;2.85;1.75;;;6.60;99.90;;;;;;4993851;28;20514;-79
2024/03/29 00:16:25;;;;;;;2.75;1.70;;;6.70;99.90;;;;;;4994536;28;20045;-80
2024/03/29 00:18:51;;;;;;;6.20;3.53;;;6.60;99.90;;;;;;4991224;28;20041;-79
2024/03/29 00:21:18;;;;;;;6.72;3.03;;;6.60;99.90;;;;;;4992068;28;20080;-79
2024/03/29 00:23:46;;;;;;;5.78;2.92;;;6.50;99.90;;;;;;4993617;28;20041;-79
2024/03/29 00:26:12;;;;;;;8.25;3.25;;;6.50;99.90;;;;;;4993573;28;20502;-79
2024/03/29 00:28:39;;;;;;;6.35;2.40;;;6.50;99.90;;;;;;4993832;28;20028;-80
2024/03/29 00:31:04;;;;;;;4.05;2.30;;;6.60;99.90;;;;;;4994405;28;20459;-79
2024/03/29 00:33:30;;;;;;;5.28;1.60;;;6.60;99.90;;;;;;4993669;28;20033;-79
2024/03/29 00:35:56;;;;;;;2.45;2.10;;;6.70;99.90;;;;;;5011495;28;20033;-79
2024/03/29 00:38:22;;;;;;;2.30;2.08;;;6.70;99.90;;;;;;4993279;28;20030;-79
2024/03/29 00:40:47;;;;;;;5.22;2.20;;;6.70;99.90;;;;;;4993772;28;20032;-79
2024/03/29 00:43:13;;;;;;;2.83;1.80;;;6.70;99.90;;;;;;4994163;28;20084;-79
2024/03/29 00:45:40;;;;;;;2.78;2.10;;;6.70;99.90;;;;;;4993692;28;20113;-79
2024/03/29 00:48:06;;;;;;;5.32;2.15;;;6.70;99.90;;;;;;5010692;28;20033;-79
2024/03/29 00:50:32;;;;;;;1.92;1.70;;;6.70;99.90;;;;;;4993738;28;20057;-79
2024/03/29 00:52:57;;;;;;;2.60;2.03;;;6.60;99.90;;;;;;5010862;28;20065;-79
2024/03/29 00:55:23;;;;;;;3.63;2.03;;;6.60;99.90;;;;;;5011846;28;20028;-79
2024/03/29 00:57:49;;;;;;;3.75;2.80;;;6.70;99.90;;;;;;4993488;28;20510;-78
2024/03/29 01:00:15;;;;;;;4.32;2.60;;;6.60;99.90;;;;;;4993063;28;20038;-78
2024/03/29 01:02:40;;;;;;;4.72;2.08;;;6.60;99.90;;;;;;5010845;28;20105;-79
2024/03/29 01:05:07;;;;;;;3.50;2.30;;;6.50;99.90;;;;;;4993511;28;20033;-79
2024/03/29 01:07:33;;;;;;;4.00;2.90;;;6.50;99.90;;;;;;4993980;28;20088;-79
2024/03/29 01:09:58;;;;;;;4.80;3.15;;;6.40;99.90;;;;;;5011221;28;20029;-79
2024/03/29 01:12:24;;;;;;;3.55;2.58;;;6.50;99.90;;;;;;4994878;28;20034;-79
2024/03/29 01:14:50;;;;;;;4.57;2.78;;;6.50;99.90;;;;;;4997531;28;20030;-79
2024/03/29 01:17:16;;;;;;;6.50;3.42;;;6.50;99.90;;;;;;4997379;28;20045;-80
2024/03/29 01:19:42;;;;;;;6.03;3.58;;;6.50;99.90;;;;;;5015098;28;20022;-80
2024/03/29 01:22:08;;;;;;;7.25;4.07;;;6.50;99.90;;;;;;5015023;28;20087;-79
2024/03/29 01:24:34;;;;;;;8.07;4.65;;;6.40;99.90;;;;;;4996968;28;20095;-79
2024/03/29 01:26:59;;;;;;;5.68;4.13;;;6.40;99.90;;;;;;4997039;28;20460;-79
2024/03/29 01:29:25;;;;;;;6.88;4.82;;;6.40;99.90;;;;;;4996972;28;20041;-79
2024/03/29 01:31:51;;;;;;;6.03;4.68;;;6.30;99.90;;;;;;4996923;28;20018;-80
2024/03/29 01:34:17;;;;;;;8.50;4.97;;;6.30;99.90;;;;;;5015042;28;20033;-79
2024/03/29 01:36:43;;;;;;;8.77;5.40;;;6.30;99.90;;;;;;4997014;28;20492;-79
2024/03/29 01:39:10;;;;;;;7.97;5.75;;;6.30;99.90;;;;;;5014500;28;20121;-79
2024/03/29 01:41:36;;;;;;;10.65;5.70;;;6.20;99.90;;;;;;4996894;28;20050;-78
2024/03/29 01:44:02;;;;;;;10.75;6.32;;;6.10;99.90;;;;;;4996902;28;21383;-78
2024/03/29 01:46:28;;;;;;;11.85;6.70;;;6.10;99.90;;;;;;4996733;28;20037;-78
2024/03/29 01:48:55;;;;;;;11.05;6.53;;;6.00;99.90;;;;;;4996681;28;20044;-77
2024/03/29 01:51:23;;;;;;;14.13;7.07;;;6.00;99.90;;;;;;5014413;28;20029;-78
2024/03/29 01:53:53;;;;;;;11.27;6.63;;;5.90;99.90;;;;;;4996563;28;20125;-78
2024/03/29 01:56:20;;;;;;;13.05;8.27;;;5.80;99.90;;;;;;5014041;28;20061;-78
2024/03/29 01:58:47;;;;;;;14.27;8.45;;;5.80;99.90;;;;;;5012806;28;20435;-78
2024/03/29 02:01:13;;;;;;;12.35;7.50;;;5.80;99.90;;;;;;4996932;28;20025;-78
2024/03/29 02:03:40;;;;;;;15.40;7.53;;;5.70;99.90;;;;;;5014163;28;20030;-77
2024/03/29 02:06:06;;;;;;;10.30;6.68;;;5.70;99.90;;;;;;4995532;28;20042;-78
2024/03/29 02:08:33;;;;;;;14.27;7.75;;;5.70;99.90;;;;;;4995449;28;20061;-78
2024/03/29 02:10:59;;;;;;;13.18;7.45;;;5.70;99.90;;;;;;4996256;28;20037;-78
2024/03/29 02:13:25;;;;;;;12.57;7.60;;;5.70;99.90;;;;;;5013358;28;20038;-77
2024/03/29 02:15:50;;;;;;;17.50;8.75;;;5.60;99.90;;;;;;4995839;28;20569;-78
2024/03/29 02:18:16;;;;;;;19.05;9.15;;;5.60;99.90;;;;;;5013505;28;20095;-78
2024/03/29 02:20:42;;;;;;;11.98;6.68;;;5.60;99.90;;;;;;4996146;28;20087;-78
2024/03/29 02:23:11;;;;;;;12.20;6.28;;;5.60;99.90;;;;;;5013525;28;20100;-78
2024/03/29 02:25:38;;;;;;;10.07;6.18;;;5.60;99.90;;;;;;4996706;28;20033;-77
2024/03/29 02:28:04;;;;;;;9.45;6.38;;;5.60;99.90;;;;;;5013696;28;20480;-78
2024/03/29 02:30:30;;;;;;;10.68;6.43;;;5.50;99.90;;;;;;5013511;28;20030;-78
2024/03/29 02:32:57;;;;;;;11.07;6.78;;;5.50;99.90;;;;;;4995903;28;20096;-78
2024/03/29 02:35:22;;;;;;;11.80;6.38;;;5.40;99.90;;;;;;4996039;28;20032;-78
2024/03/29 02:37:48;;;;;;;9.40;7.13;;;5.40;99.90;;;;;;4995912;28;20112;-78
2024/03/29 02:40:14;;;;;;;10.63;7.18;;;5.40;99.90;;;;;;4996182;28;20101;-78
2024/03/29 02:42:39;;;;;;;12.52;6.47;;;5.30;99.90;;;;;;4995969;28;20030;-78
2024/03/29 02:45:05;;;;;;;11.13;7.22;;;5.30;99.90;;;;;;4995057;28;20507;-78
2024/03/29 02:47:31;;;;;;;9.88;6.78;;;5.30;99.90;;;;;;5013304;28;20041;-78
2024/03/29 02:49:57;;;;;;;10.30;7.75;;;5.30;99.90;;;;;;4995489;28;20104;-78
2024/03/29 02:52:22;;;;;;;12.98;7.65;;;5.20;99.90;;;;;;4995923;28;20032;-78
2024/03/29 02:54:48;;;;;;;10.05;6.47;;;5.30;99.90;;;;;;4995788;28;20112;-78
2024/03/29 02:57:14;;;;;;;12.82;7.30;;;5.30;99.90;;;;;;5012891;28;20029;-79
2024/03/29 02:59:42;;;;;;;13.75;7.30;;;5.20;99.90;;;;;;4995239;28;20392;-78
2024/03/29 03:02:08;;;;;;;10.90;7.45;;;5.20;99.90;;;;;;4995269;28;20026;-80
2024/03/29 03:04:34;;;;;;;13.68;7.47;;;5.20;99.90;;;;;;4993699;28;20081;-80
2024/03/29 03:10:56;;;;;;;11.77;7.93;;;5.10;99.90;;;;;;4994855;28;20038;-80
2024/03/29 03:12:31;;;;;;;11.13;7.55;;;5.10;99.90;;;;;;5012160;28;20037;-80
2024/03/29 03:14:59;;;;;;;12.30;6.80;;;5.00;99.90;;;;;;4995157;28;20041;-80
2024/03/29 03:17:28;;;;;;;10.20;7.07;;;5.00;99.90;;;;;;5012708;28;20045;-79
2024/03/29 03:19:54;;;;;;;10.90;7.40;;;5.00;99.90;;;;;;4994991;28;20036;-80
2024/03/29 03:22:20;;;;;;;12.45;7.57;;;5.00;99.90;;;;;;4995085;28;20029;-79
2024/03/29 03:24:45;;;;;;;10.73;7.57;;;5.00;99.90;;;;;;5012673;28;20026;-80
2024/03/29 03:27:11;;;;;;;10.73;6.85;;;5.00;99.90;;;;;;5012445;28;20049;-80
2024/03/29 03:29:37;;;;;;;10.25;7.05;;;4.90;99.90;;;;;;5012642;28;20750;-80
2024/03/29 03:32:03;;;;;;;13.35;8.10;;;4.90;99.90;;;;;;4994588;28;20025;-80
2024/03/29 03:34:29;;;;;;;11.27;7.07;;;4.80;99.90;;;;;;4994757;28;20172;-80
2024/03/29 03:36:54;;;;;;;10.95;7.90;;;4.80;99.90;;;;;;5012450;28;20109;-80
2024/03/29 03:39:20;;;;;;;11.10;7.32;;;4.90;99.90;;;;;;4994371;28;20164;-79
2024/03/29 03:41:46;;;;;;;12.95;7.93;;;4.80;99.90;;;;;;5012461;28;20061;-80
2024/03/29 03:44:12;;;;;;;11.13;8.00;;;4.80;99.90;;;;;;4993937;28;20026;-80
2024/03/29 03:46:38;;;;;;;12.05;8.07;;;4.80;99.90;;;;;;4994600;28;20103;-80
2024/03/29 03:49:03;;;;;;;11.27;8.45;;;4.70;99.90;;;;;;5012690;28;20107;-79
2024/03/29 03:51:29;;;;;;;12.30;8.30;;;4.70;99.90;;;;;;4994544;28;20037;-80
2024/03/29 03:53:54;;;;;;;12.60;8.18;;;4.70;99.90;;;;;;4994247;28;20041;-79
2024/03/29 03:56:20;;;;;;;9.82;7.15;;;4.70;99.90;;;;;;4994314;28;20063;-80
2024/03/29 03:58:46;;;;;;;9.98;7.45;;;4.60;99.90;;;;;;5012085;28;20061;-79
2024/03/29 04:01:12;;;;;;;12.52;8.63;;;4.60;99.90;;;;;;4994855;28;20379;-80
2024/03/29 04:03:39;;;;;;;11.25;7.43;;;4.50;99.90;;;;;;5012145;28;20026;-79
2024/03/29 04:06:06;;;;;;;16.65;7.95;;;4.50;99.90;;;;;;5011603;28;20446;-80
2024/03/29 04:08:31;;;;;;;15.07;10.50;;;4.50;99.90;;;;;;4994225;28;20060;-80
2024/03/29 04:10:57;;;;;;;13.35;9.20;;;4.50;99.90;;;;;;5011769;28;20555;-80
2024/03/29 04:13:23;;;;;;;12.95;8.27;;;4.50;99.90;;;;;;4994708;28;20498;-80
2024/03/29 04:15:49;;;;;;;11.38;7.82;;;4.50;99.90;;;;;;4993392;28;20050;-79
2024/03/29 04:18:14;;;;;;;11.13;7.28;;;4.50;99.90;;;;;;5011181;28;20428;-79
2024/03/29 04:20:40;;;;;;;14.27;8.10;;;4.40;99.90;;;;;;5011559;28;20022;-79
2024/03/29 04:23:06;;;;;;;13.73;8.48;;;4.40;99.90;;;;;;5011701;28;20068;-79
2024/03/29 04:25:32;;;;;;;17.52;11.45;;;4.40;99.90;;;;;;5012032;28;20029;-79
2024/03/29 04:27:58;;;;;;;14.27;9.90;;;4.40;99.90;;;;;;4993600;28;20057;-79
2024/03/29 04:30:24;;;;;;;13.43;9.20;;;4.40;99.90;;;;;;4981238;28;20502;-80
2024/03/29 04:32:50;;;;;;;14.30;9.70;;;4.30;99.90;;;;;;5011317;28;20026;-80
2024/03/29 04:35:15;;;;;;;12.40;8.93;;;4.30;99.90;;;;;;4993852;28;20026;-79
2024/03/29 04:37:41;;;;;;;14.55;10.38;;;4.30;99.90;;;;;;4993308;28;20104;-79
2024/03/29 04:40:07;;;;;;;16.63;10.25;;;4.20;99.90;;;;;;4994097;28;20022;-79
2024/03/29 04:42:33;;;;;;;16.27;10.13;;;4.10;99.90;;;;;;5011178;28;20095;-79
2024/03/29 04:44:59;;;;;;;34.03;17.80;;;4.10;99.90;;;;;;4993870;28;20105;-80
2024/03/29 04:47:24;;;;;;;28.30;16.30;;;4.10;99.90;;;;;;5010042;28;20528;-80
2024/03/29 04:49:50;;;;;;;26.45;17.05;;;4.10;99.90;;;;;;5011325;28;20144;-80
2024/03/29 04:52:16;;;;;;;20.38;15.55;;;4.10;99.90;;;;;;5011465;28;20105;-79
2024/03/29 04:54:43;;;;;;;19.42;13.57;;;4.10;99.90;;;;;;4993946;28;20048;-79
2024/03/29 04:57:09;;;;;;;19.48;12.18;;;4.10;99.90;;;;;;4993417;28;20395;-80
2024/03/29 04:59:35;;;;;;;16.77;11.73;;;4.10;99.90;;;;;;4993719;28;20030;-80
2024/03/29 05:02:01;;;;;;;17.95;11.40;;;4.10;99.90;;;;;;5010715;28;20026;-80
2024/03/29 05:04:27;;;;;;;19.95;11.48;;;4.20;99.90;;;;;;4981709;28;20025;-79
2024/03/29 05:06:53;;;;;;;22.83;13.40;;;4.20;99.90;;;;;;4993279;28;20528;-79
2024/03/29 05:09:19;;;;;;;26.13;16.48;;;4.20;99.90;;;;;;4993010;28;20033;-79
2024/03/29 05:11:46;;;;;;;28.52;17.77;;;4.20;99.90;;;;;;4993138;28;20443;-79
2024/03/29 05:14:18;;;;;;;24.88;16.58;;;4.30;99.90;;;;;;5010711;28;20033;-79
2024/03/29 05:16:44;;;;;;;18.95;13.38;;;4.30;99.90;;;;;;4992892;28;20056;-80
2024/03/29 05:19:09;;;;;;;19.48;13.57;;;4.30;99.90;;;;;;4993895;28;20056;-80
2024/03/29 05:21:35;;;;;;;17.48;12.15;;;4.40;99.90;;;;;;4993205;28;20029;-80
2024/03/29 05:24:01;;;;;;;18.00;12.23;;;4.40;99.90;;;;;;5010949;28;20496;-79
2024/03/29 05:26:27;;;;;;;19.77;12.57;;;4.50;99.90;;;;;;4992973;28;20451;-80
2024/03/29 05:28:55;;;;;;;17.45;10.88;;;4.50;99.90;;;;;;4993226;28;20423;-80
2024/03/29 05:31:21;;;;;;;23.67;14.93;;;4.60;99.90;;;;;;4993622;28;20117;-80
2024/03/29 05:33:47;;;;;;;21.20;13.10;;;4.70;99.90;;;;;;5010943;28;20124;-80
2024/03/29 05:36:13;;;;;;;20.27;12.95;;;4.80;99.90;;;;;;4993045;28;20030;-80
2024/03/29 05:38:39;;;;;;;15.80;10.50;;;4.90;99.90;;;;;;4992879;28;20060;-80
2024/03/29 05:41:05;;;;;;;12.90;9.20;;;4.90;99.90;;;;;;5010288;28;20030;-80
2024/03/29 05:43:31;;;;;;;15.25;9.48;;;5.00;99.90;;;;;;5011300;28;20021;-80
2024/03/29 05:45:57;;;;;;;12.80;9.38;;;5.00;99.90;;;;;;5010581;28;20026;-79
2024/03/29 05:48:23;;;;;;;11.55;8.57;;;5.10;99.90;;;;;;4992888;28;20087;-79
2024/03/29 05:50:49;;;;;;;8.48;5.78;;;5.20;99.90;;;;;;4993010;28;20107;-80
2024/03/29 05:53:15;;;;;;;10.00;6.78;;;5.40;99.90;;;;;;4991229;28;20037;-79
2024/03/29 05:55:40;;;;;;;7.28;5.55;;;5.50;99.90;;;;;;4989774;28;20022;-80
2024/03/29 05:58:06;;;;;;;8.07;5.78;;;5.60;99.90;;;;;;5011566;28;20467;-80
2024/03/29 06:00:36;;;;;;;6.38;5.30;;;5.60;99.90;;;;;;4996398;28;20491;-81
2024/03/29 06:03:05;;;;;;;7.43;5.15;;;5.70;99.90;;;;;;4996192;28;20540;-79
2024/03/29 06:05:30;;;;;;;5.85;4.93;;;5.80;99.90;;;;;;4995353;28;20026;-79
2024/03/29 06:07:56;;;;;;;6.57;4.82;;;5.80;99.90;;;;;;5013510;28;20377;-79
2024/03/29 06:10:22;;;;;;;4.53;4.05;;;6.00;99.90;;;;;;5014035;28;20045;-80
2024/03/29 06:12:48;;;;;;;7.25;4.57;;;6.00;99.90;;;;;;4993942;28;20034;-80
2024/03/29 06:17:57;;;;;;;5.28;3.88;;;6.40;99.90;;;;;;5011518;28;20092;-81
2024/03/29 06:20:24;;;;;;;5.00;4.25;;;6.40;99.90;;;;;;4990171;28;20030;-81
2024/03/29 06:22:50;;;;;;;6.10;3.92;;;6.60;99.90;;;;;;4993392;28;20121;-79
2024/03/29 06:25:16;;;;;;;5.93;4.20;;;6.80;99.90;;;;;;5005928;28;20117;-80
2024/03/29 06:27:47;;;;;;;3.90;3.53;;;6.90;99.90;;;;;;5001882;28;20103;-80
2024/03/29 06:30:14;;;;;;;6.35;4.03;;;7.00;99.90;;;;;;5005660;28;20129;-80
2024/03/29 06:32:40;;;;;;;3.50;3.20;;;7.10;99.90;;;;;;4990205;28;20109;-79
2024/03/29 06:35:06;;;;;;;3.88;3.40;;;7.20;99.90;;;;;;4988663;28;20118;-79
2024/03/29 06:37:32;;;;;;;3.58;2.80;;;7.40;99.90;;;;;;5009100;28;20025;-79
2024/03/29 06:39:58;;;;;;;3.95;2.97;;;7.50;99.90;;;;;;4992768;28;20030;-78
2024/03/29 06:42:23;;;;;;;4.43;2.80;;;7.60;99.90;;;;;;4992582;28;20045;-78
2024/03/29 06:44:49;;;;;;;3.80;2.38;;;7.70;99.90;;;;;;5008857;28;20030;-78
2024/03/29 06:47:15;;;;;;;5.57;3.00;;;7.90;99.90;;;;;;4994249;28;20444;-80
2024/03/29 06:49:41;;;;;;;4.50;2.70;;;8.00;99.90;;;;;;4994131;28;20439;-80
2024/03/29 06:52:06;;;;;;;3.80;2.38;;;8.10;99.90;;;;;;5012332;28;20041;-80
2024/03/29 06:54:33;;;;;;;4.63;2.53;;;8.30;99.90;;;;;;4991308;28;20466;-79
2024/03/29 06:56:59;;;;;;;3.70;2.67;;;8.40;99.90;;;;;;5011308;28;20022;-78
2024/03/29 06:59:26;;;;;;;3.58;2.53;;;8.50;99.90;;;;;;5011097;28;20037;-79
2024/03/29 07:01:52;;;;;;;3.25;2.15;;;8.60;99.90;;;;;;4994200;28;20038;-78
2024/03/29 07:04:27;;;;;;;3.95;2.38;;;8.70;99.90;;;;;;5012184;28;20029;-78
2024/03/29 07:06:53;;;;;;;4.63;2.28;;;8.90;99.90;;;;;;5011285;28;20136;-78
2024/03/29 07:09:21;;;;;;;2.45;1.63;;;9.00;99.90;;;;;;5010527;28;20026;-79
2024/03/29 07:11:47;;;;;;;2.53;2.00;;;9.10;99.90;;;;;;4992598;28;20128;-80
2024/03/29 07:14:14;;;;;;;2.83;2.08;;;9.20;99.90;;;;;;4992771;28;20109;-78
2024/03/29 07:16:43;;;;;;;2.67;1.65;;;9.30;99.90;;;;;;5011461;28;20117;-78
2024/03/29 07:19:12;;;;;;;3.03;1.67;;;9.50;99.90;;;;;;4993986;28;20559;-77
2024/03/29 07:21:38;;;;;;;3.13;1.77;;;9.60;99.90;;;;;;4994007;28;20037;-79
2024/03/29 07:24:04;;;;;;;2.78;1.70;;;9.70;99.90;;;;;;4993614;28;20478;-79
2024/03/29 07:26:30;;;;;;;3.05;1.88;;;9.80;99.90;;;;;;4993003;28;20049;-79
2024/03/29 07:28:56;;;;;;;3.72;1.73;;;9.90;99.90;;;;;;4993298;28;20022;-77
2024/03/29 07:31:21;;;;;;;2.45;2.05;;;10.20;99.90;;;;;;4999811;28;20539;-79
2024/03/29 07:33:47;;;;;;;1.42;1.33;;;10.20;99.90;;;;;;5011181;28;20053;-78
2024/03/29 07:36:18;;;;;;;3.63;1.75;;;10.20;99.60;;;;;;4993172;28;20069;-77
2024/03/29 07:38:44;;;;;;;2.67;1.60;;;10.30;94.80;;;;;;4987168;28;20026;-77
2024/03/29 07:41:10;;;;;;;1.50;1.15;;;10.40;92.00;;;;;;5009853;28;20503;-77
2024/03/29 07:43:40;;;;;;;2.05;1.55;;;10.40;90.60;;;;;;5011775;28;20033;-77
2024/03/29 07:46:08;;;;;;;2.15;1.40;;;10.50;91.30;;;;;;4992434;28;20033;-77
2024/03/29 07:48:35;;;;;;;2.45;1.52;;;10.60;88.40;;;;;;4994610;28;20038;-77
2024/03/29 07:51:00;;;;;;;1.65;1.30;;;10.70;84.50;;;;;;4992433;28;20392;-76
2024/03/29 07:53:26;;;;;;;2.38;1.15;;;10.70;84.60;;;;;;4993090;28;20022;-79
2024/03/29 07:55:51;;;;;;;3.10;1.27;;;10.80;84.90;;;;;;5009812;28;20018;-77
2024/03/29 07:58:17;;;;;;;2.35;1.40;;;10.90;81.40;;;;;;4993480;28;20180;-77
2024/03/29 08:00:43;;;;;;;1.90;1.38;;;11.10;82.70;;;;;;5010578;28;20467;-77
2024/03/29 08:03:09;;;;;;;1.58;1.30;;;11.20;79.40;;;;;;5010364;28;20096;-77
2024/03/29 08:05:34;;;;;;;1.42;1.15;;;11.20;78.70;;;;;;4992401;28;20026;-77
2024/03/29 08:08:01;;;;;;;2.67;1.25;;;11.20;78.80;;;;;;5010531;28;20038;-77
2024/03/29 08:10:26;;;;;;;2.03;1.15;;;11.20;78.20;;;;;;4994447;28;20017;-78
2024/03/29 08:12:52;;;;;;;2.78;1.40;;;11.10;75.40;;;;;;4994208;28;20121;-78
2024/03/29 08:15:18;;;;;;;2.00;1.27;;;11.20;75.40;;;;;;5011538;28;20022;-78
2024/03/29 08:17:45;;;;;;;2.47;1.15;;;11.40;76.50;;;;;;5011489;28;20034;-79
2024/03/29 08:20:10;;;;;;;1.88;1.45;;;11.40;74.00;;;;;;5011482;28;20109;-78
2024/03/29 08:22:36;;;;;;;1.23;0.90;;;11.40;73.50;;;;;;5012117;28;20105;-78
2024/03/29 08:25:02;;;;;;;1.90;1.20;;;11.50;74.10;;;;;;4993399;28;20037;-78
2024/03/29 08:27:28;;;;;;;2.28;1.00;;;11.50;73.40;;;;;;4993642;28;20037;-78
2024/03/29 08:29:54;;;;;;;3.28;1.40;;;11.60;73.20;;;;;;5011199;28;20480;-78
2024/03/29 08:32:20;;;;;;;2.55;1.65;;;11.60;71.80;;;;;;4993721;28;20538;-78
2024/03/29 08:34:46;;;;;;;1.52;1.05;;;11.70;68.70;;;;;;5010390;28;20387;-78
2024/03/29 08:37:11;;;;;;;2.90;1.42;;;11.80;69.60;;;;;;5010911;28;20022;-79
2024/03/29 08:39:37;;;;;;;1.40;0.93;;;11.80;68.00;;;;;;4993567;28;20080;-78
2024/03/29 08:42:07;;;;;;;1.90;1.10;;;11.90;67.10;;;;;;4993022;28;20030;-79
2024/03/29 08:44:33;;;;;;;2.63;1.38;;;11.90;67.70;;;;;;4993365;28;20022;-78
2024/03/29 08:47:01;;;;;;;1.77;1.20;;;12.10;67.50;;;;;;4993292;28;20065;-76
2024/03/29 08:49:27;;;;;;;1.00;1.00;;;12.20;65.30;;;;;;4993646;28;20036;-78
2024/03/29 08:51:53;;;;;;;1.30;0.90;;;12.50;67.50;;;;;;4998667;28;20121;-77
2024/03/29 08:54:19;;;;;;;3.25;0.93;;;12.70;67.90;;;;;;4986785;28;20615;-78
2024/03/29 08:56:44;;;;;;;1.23;0.90;;;12.80;64.70;;;;;;4990050;28;20039;-78
2024/03/29 08:59:11;;;;;;;2.63;0.85;;;12.90;63.10;;;;;;4992390;28;20029;-78
2024/03/29 09:01:41;;;;;;;1.50;0.85;;;13.00;61.30;;;;;;4993793;28;20014;-77
2024/03/29 09:04:11;;;;;;;1.02;0.95;;;13.20;62.50;;;;;;4992903;28;20038;-79
2024/03/29 09:06:37;;;;;;;1.77;0.93;;;13.20;60.50;;;;;;4993100;28;20452;-78
2024/03/29 09:09:06;;;;;;;1.85;1.00;;;13.30;60.60;;;;;;4993112;28;20503;-78
2024/03/29 09:11:32;;;;;;;1.10;0.90;;;13.50;61.30;;;;;;4992895;28;20388;-78
2024/03/29 09:13:58;;;;;;;1.98;1.30;;;13.60;61.40;;;;;;5010524;28;20037;-78
2024/03/29 09:16:28;;;;;;;5.75;2.20;;;13.60;60.80;;;;;;4993292;28;20057;-78
2024/03/29 09:18:57;;;;;;;4.05;1.60;;;13.70;59.90;;;;;;4991942;28;20052;-79
2024/03/29 09:21:22;;;;;;;2.05;1.17;;;13.80;59.90;;;;;;5010770;28;20037;-78
2024/03/29 09:23:50;;;;;;;4.63;2.10;;;13.90;59.70;;;;;;5010615;28;20034;-80
2024/03/29 09:26:16;;;;;;;5.22;2.55;;;14.10;59.90;;;;;;5010420;28;20049;-79
2024/03/29 09:28:42;;;;;;;11.90;5.68;;;14.20;59.20;;;;;;4988408;28;20030;-79
2024/03/29 09:31:08;;;;;;;7.00;3.35;;;14.50;58.70;;;;;;4989170;28;20041;-79
2024/03/29 09:33:33;;;;;;;3.35;1.10;;;14.70;59.00;;;;;;4986649;28;20475;-78
2024/03/29 09:35:59;;;;;;;2.85;1.30;;;14.90;56.80;;;;;;4994668;28;20037;-79
2024/03/29 09:38:26;;;;;;;8.73;4.10;;;14.90;56.20;;;;;;5015186;28;20041;-79
2024/03/29 09:41:15;;;;;;;5.13;2.25;;;14.90;55.60;;;;;;5012064;28;20333;-78
2024/03/29 09:43:45;;;;;;;3.15;1.02;;;14.90;55.60;;;;;;4991771;28;20115;-78
2024/03/29 09:46:12;;;;;;;3.33;2.10;;;14.80;53.90;;;;;;4990048;28;20057;-78
2024/03/29 09:48:45;;;;;;;3.72;1.85;;;14.90;54.20;;;;;;4995235;28;20758;-79
2024/03/29 09:51:13;;;;;;;;;;;14.90;52.90;;;;;;4996167;28;20030;-77
2024/03/29 09:53:40;;;;;;;2.55;1.67;;;15.00;54.90;;;;;;4995035;28;19914;-77
2024/03/29 09:56:07;;;;;;;2.75;1.25;;;15.10;54.60;;;;;;4995202;28;20828;-78
2024/03/29 09:58:33;;;;;;;1.17;1.00;;;15.10;53.50;;;;;;5007335;28;20488;-77
2024/03/29 10:01:00;;;;;;;10.68;5.38;;;15.20;54.70;;;;;;4994859;28;20170;-77
2024/03/29 10:03:30;;;;;;;10.98;6.22;;;15.10;53.40;;;;;;4994933;28;20322;-77
2024/03/29 10:05:59;;;;;;;5.78;2.80;;;15.20;54.40;;;;;;4994473;28;20041;-77
2024/03/29 10:08:31;;;;;;;3.33;1.83;;;15.10;54.00;;;;;;5012653;28;20046;-78
2024/03/29 10:10:57;;;;;;;1.63;0.60;;;15.10;52.40;;;;;;5012515;28;20107;-78
2024/03/29 10:13:24;;;;;;;2.55;1.45;;;15.10;51.30;;;;;;4994735;28;20049;-80
2024/03/29 10:15:55;;;;;;;6.90;3.42;;;15.10;50.40;;;;;;4992779;28;20053;-78
2024/03/29 10:18:22;;;;;;;5.18;2.13;;;15.10;51.50;;;;;;4994545;28;20558;-77
2024/03/29 10:21:02;;;;;;;3.00;1.80;;;15.20;51.00;;;;;;5012613;28;20076;-78
2024/03/29 10:23:28;;;;;;;1.13;0.75;;;15.30;50.70;;;;;;4989359;28;20030;-78
2024/03/29 10:25:53;;;;;;;3.03;1.23;;;15.30;49.00;;;;;;5012041;28;20423;-78
2024/03/29 10:28:19;;;;;;;3.75;1.75;;;15.30;48.70;;;;;;4994553;28;20056;-78
2024/03/29 10:30:45;;;;;;;22.90;10.30;;;15.40;48.70;;;;;;4994095;28;20047;-78
2024/03/29 10:33:12;;;;;;;17.23;7.72;;;15.30;47.30;;;;;;4994695;28;20049;-78
2024/03/29 10:35:42;;;;;;;6.47;2.47;;;15.40;47.50;;;;;;5018889;28;20502;-78
2024/03/29 10:38:09;;;;;;;5.68;2.25;;;15.30;46.70;;;;;;4993779;28;20507;-78
2024/03/29 10:40:34;;;;;;;4.55;1.88;;;15.30;48.40;;;;;;4995238;28;20050;-78
2024/03/29 10:43:03;;;;;;;7.90;3.67;;;15.30;47.80;;;;;;4994097;28;20038;-77
2024/03/29 10:45:30;;;;;;;8.55;4.18;;;15.40;48.90;;;;;;4993400;28;20396;-77
2024/03/29 10:47:56;;;;;;;14.63;7.72;;;15.20;47.40;;;;;;4993462;28;20181;-77
2024/03/29 10:50:23;;;;;;;9.90;4.45;;;15.20;46.40;;;;;;4994455;28;20037;-77
2024/03/29 10:52:50;;;;;;;13.90;5.20;;;15.20;47.70;;;;;;4976746;28;20033;-77
2024/03/29 10:55:15;;;;;;;10.70;4.00;;;15.30;47.80;;;;;;4993872;28;20038;-79
2024/03/29 10:57:45;;;;;;;7.43;3.35;;;15.40;49.00;;;;;;5010763;28;20030;-77
2024/03/29 11:00:18;;;;;;;12.82;6.00;;;15.30;47.80;;;;;;5011336;28;20038;-78
2024/03/29 11:03:14;;;;;;;7.05;3.35;;;15.40;48.00;;;;;;4990948;28;20555;-78
2024/03/29 11:05:48;;;;;;;4.22;2.13;;;15.50;47.90;;;;;;4991522;28;20037;-78
2024/03/29 11:08:20;;;;;;;5.05;2.08;;;15.60;46.70;;;;;;4997832;28;20049;-78
2024/03/29 11:10:50;;;;;;;7.82;2.85;;;15.70;47.20;;;;;;4999174;28;20381;-78
2024/03/29 11:13:29;;;;;;;2.97;1.27;;;15.70;46.70;;;;;;4994513;28;20057;-78
2024/03/29 11:15:55;;;;;;;2.50;0.93;;;15.80;46.70;;;;;;4992927;28;20136;-77
2024/03/29 11:18:24;;;;;;;2.00;1.00;;;15.80;46.40;;;;;;5010753;28;20168;-78
2024/03/29 11:20:51;;;;;;;2.58;1.42;;;15.80;45.70;;;;;;4995218;28;20411;-79
2024/03/29 11:23:19;;;;;;;0.82;0.43;;;15.90;48.50;;;;;;4988859;28;20167;-78
2024/03/29 11:26:02;;;;;;;2.40;1.42;;;15.90;45.50;;;;;;4994731;28;20475;-81
2024/03/29 11:28:31;;;;;;;1.85;1.42;;;16.10;46.70;;;;;;5013026;28;20487;-79
2024/03/29 11:31:07;;;;;;;1.52;0.73;;;16.30;47.60;;;;;;4995073;28;20042;-79
2024/03/29 11:33:45;;;;;;;1.83;0.60;;;16.40;46.80;;;;;;4993181;28;20384;-78
2024/03/29 11:36:12;;;;;;;3.70;1.00;;;16.30;45.10;;;;;;4989717;28;20519;-78
2024/03/29 11:38:38;;;;;;;1.70;0.98;;;16.40;44.60;;;;;;4997265;28;20149;-79
2024/03/29 11:41:11;;;;;;;2.70;1.10;;;16.50;44.00;;;;;;5003146;28;20499;-79
2024/03/29 11:43:38;;;;;;;2.78;0.63;;;16.40;44.30;;;;;;4987913;28;20037;-79
2024/03/29 11:46:08;;;;;;;0.85;0.60;;;16.50;44.30;;;;;;4993162;28;20076;-78
2024/03/29 11:48:35;;;;;;;1.23;0.40;;;16.50;44.60;;;;;;4988126;28;20034;-79
2024/03/29 11:51:03;;;;;;;0.85;0.45;;;16.50;44.00;;;;;;5008648;28;20048;-78
2024/03/29 11:53:29;;;;;;;1.08;0.30;;;16.50;42.70;;;;;;4994178;28;20034;-78
2024/03/29 11:55:59;;;;;;;0.93;0.70;;;16.50;41.90;;;;;;4989199;28;20472;-77
2024/03/29 11:58:26;;;;;;;2.17;0.75;;;16.60;42.10;;;;;;4998873;28;20075;-77
2024/03/29 12:00:53;;;;;;;1.40;0.50;;;16.70;43.10;;;;;;4990374;28;20075;-77
2024/03/29 12:03:21;;;;;;;0.85;0.47;;;16.60;41.80;;;;;;4993293;28;20169;-77
2024/03/29 12:05:48;;;;;;;3.25;0.95;;;16.60;41.90;;;;;;4992130;28;20034;-77
2024/03/29 12:08:14;;;;;;;0.55;0.40;;;16.70;42.20;;;;;;5011051;28;20041;-77
2024/03/29 12:10:40;;;;;;;1.50;0.77;;;16.80;42.80;;;;;;4993926;28;20028;-78
2024/03/29 12:13:07;;;;;;;0.85;0.40;;;16.80;42.50;;;;;;5011968;28;20033;-77
2024/03/29 12:15:33;;;;;;;0.40;0.40;;;16.90;41.90;;;;;;5011285;28;20036;-76
2024/03/29 12:18:02;;;;;;;2.03;0.47;;;17.00;41.30;;;;;;5011353;28;20030;-77
2024/03/29 12:20:37;;;;;;;0.50;0.50;;;17.10;43.30;;;;;;4983791;28;20121;-77
2024/03/29 12:23:04;;;;;;;0.65;0.43;;;17.10;42.10;;;;;;4985344;28;20037;-77
2024/03/29 12:25:31;;;;;;;1.33;0.47;;;17.10;41.30;;;;;;4982558;28;20053;-77
2024/03/29 12:27:58;;;;;;;0.50;0.32;;;17.10;41.40;;;;;;4990488;28;20042;-77
2024/03/29 12:30:24;;;;;;;1.15;0.55;;;17.10;41.10;;;;;;4993346;28;20027;-77
2024/03/29 12:33:07;;;;;;;0.40;0.40;;;17.10;41.10;;;;;;4977415;28;20046;-77
2024/03/29 12:35:33;;;;;;;;;;;17.10;41.10;;;;;;4993988;28;20022;-77
2024/03/29 12:38:04;;;;;;;1.05;0.50;;;17.00;40.00;;;;;;4990811;28;20355;-77
2024/03/29 12:40:35;;;;;;;0.60;0.40;;;17.10;41.30;;;;;;4994406;28;20042;-77
2024/03/29 12:43:03;;;;;;;1.10;0.50;;;17.20;40.90;;;;;;5009901;28;20084;-77
2024/03/29 12:45:29;;;;;;;0.95;0.60;;;17.30;41.70;;;;;;4992535;28;20088;-77
2024/03/29 12:47:55;;;;;;;3.83;0.63;;;17.50;41.90;;;;;;4992799;28;20033;-77
2024/03/29 12:50:26;;;;;;;0.45;0.40;;;17.50;41.70;;;;;;4989351;28;20093;-76
2024/03/29 12:52:55;;;;;;;0.73;0.30;;;17.40;40.70;;;;;;5007995;28;20492;-78